sensor_id;sensor_type;location;lat;lon;timestamp;P1;durP1;ratioP1;P2;durP2;ratioP2
19032;SDS011;9649;51.042;13.804;2023-12-20T00:02:52;5.07;;;4.07;;
19032;SDS011;9649;51.042;13.804;2023-12-20T00:07:55;4.10;;;3.47;;
19032;SDS011;9649;51.042;13.804;2023-12-20T00:12:59;5.93;;;3.57;;
19032;SDS011;9649;51.042;13.804;2023-12-20T00:18:02;6.43;;;3.60;;
19032;SDS011;9649;51.042;13.804;2023-12-20T00:23:06;5.93;;;3.90;;
19032;SDS011;9649;51.042;13.804;2023-12-20T00:28:11;5.00;;;3.83;;
19032;SDS011;9649;51.042;13.804;2023-12-20T00:33:14;4.17;;;3.23;;
19032;SDS011;9649;51.042;13.804;2023-12-20T00:38:17;4.70;;;2.93;;
19032;SDS011;9649;51.042;13.804;2023-12-20T00:43:21;3.67;;;2.57;;
19032;SDS011;9649;51.042;13.804;2023-12-20T00:48:23;7.13;;;2.67;;
19032;SDS011;9649;51.042;13.804;2023-12-20T00:53:28;3.87;;;2.60;;
19032;SDS011;9649;51.042;13.804;2023-12-20T00:58:32;3.67;;;2.50;;
19032;SDS011;9649;51.042;13.804;2023-12-20T01:03:35;3.27;;;2.20;;
19032;SDS011;9649;51.042;13.804;2023-12-20T01:08:37;3.17;;;2.20;;
19032;SDS011;9649;51.042;13.804;2023-12-20T01:13:42;2.60;;;1.83;;
19032;SDS011;9649;51.042;13.804;2023-12-20T01:18:44;2.40;;;2.07;;
19032;SDS011;9649;51.042;13.804;2023-12-20T01:23:48;3.20;;;2.10;;
19032;SDS011;9649;51.042;13.804;2023-12-20T01:28:52;2.23;;;1.80;;
19032;SDS011;9649;51.042;13.804;2023-12-20T01:33:55;2.90;;;1.77;;
19032;SDS011;9649;51.042;13.804;2023-12-20T01:38:58;2.20;;;1.67;;
19032;SDS011;9649;51.042;13.804;2023-12-20T01:44:02;1.83;;;1.60;;
19032;SDS011;9649;51.042;13.804;2023-12-20T01:49:05;2.17;;;1.57;;
19032;SDS011;9649;51.042;13.804;2023-12-20T01:54:09;1.57;;;1.47;;
19032;SDS011;9649;51.042;13.804;2023-12-20T01:59:13;1.30;;;1.20;;
19032;SDS011;9649;51.042;13.804;2023-12-20T02:04:16;1.50;;;1.40;;
19032;SDS011;9649;51.042;13.804;2023-12-20T02:09:19;1.67;;;1.23;;
19032;SDS011;9649;51.042;13.804;2023-12-20T02:14:23;1.60;;;1.30;;
19032;SDS011;9649;51.042;13.804;2023-12-20T02:19:26;2.07;;;1.50;;
19032;SDS011;9649;51.042;13.804;2023-12-20T02:24:30;0.80;;;0.80;;
19032;SDS011;9649;51.042;13.804;2023-12-20T02:29:33;1.17;;;1.07;;
19032;SDS011;9649;51.042;13.804;2023-12-20T02:34:36;1.23;;;1.13;;
19032;SDS011;9649;51.042;13.804;2023-12-20T02:39:41;1.17;;;1.00;;
19032;SDS011;9649;51.042;13.804;2023-12-20T02:44:43;0.80;;;0.80;;
19032;SDS011;9649;51.042;13.804;2023-12-20T02:49:48;1.37;;;1.00;;
19032;SDS011;9649;51.042;13.804;2023-12-20T02:54:53;0.90;;;0.83;;
19032;SDS011;9649;51.042;13.804;2023-12-20T02:59:56;1.30;;;1.00;;
19032;SDS011;9649;51.042;13.804;2023-12-20T03:04:58;2.10;;;0.97;;
19032;SDS011;9649;51.042;13.804;2023-12-20T03:10:04;0.90;;;0.80;;
19032;SDS011;9649;51.042;13.804;2023-12-20T03:15:20;1.00;;;0.90;;
19032;SDS011;9649;51.042;13.804;2023-12-20T03:20:23;1.03;;;0.90;;
19032;SDS011;9649;51.042;13.804;2023-12-20T03:25:28;0.80;;;0.80;;
19032;SDS011;9649;51.042;13.804;2023-12-20T03:30:31;1.17;;;1.00;;
19032;SDS011;9649;51.042;13.804;2023-12-20T03:35:34;0.90;;;0.90;;
19032;SDS011;9649;51.042;13.804;2023-12-20T03:40:39;1.97;;;0.90;;
19032;SDS011;9649;51.042;13.804;2023-12-20T03:45:41;0.80;;;0.80;;
19032;SDS011;9649;51.042;13.804;2023-12-20T03:50:45;2.23;;;1.00;;
19032;SDS011;9649;51.042;13.804;2023-12-20T03:55:49;0.90;;;0.90;;
19032;SDS011;9649;51.042;13.804;2023-12-20T04:00:52;0.70;;;0.70;;
19032;SDS011;9649;51.042;13.804;2023-12-20T04:05:55;0.73;;;0.73;;
19032;SDS011;9649;51.042;13.804;2023-12-20T04:10:59;1.20;;;1.10;;
19032;SDS011;9649;51.042;13.804;2023-12-20T04:16:02;0.80;;;0.80;;
19032;SDS011;9649;51.042;13.804;2023-12-20T04:21:05;1.07;;;0.90;;
19032;SDS011;9649;51.042;13.804;2023-12-20T04:26:10;0.80;;;0.80;;
19032;SDS011;9649;51.042;13.804;2023-12-20T04:31:12;0.80;;;0.70;;
19032;SDS011;9649;51.042;13.804;2023-12-20T04:36:16;0.70;;;0.70;;
19032;SDS011;9649;51.042;13.804;2023-12-20T04:41:20;0.60;;;0.60;;
19032;SDS011;9649;51.042;13.804;2023-12-20T04:46:22;0.70;;;0.70;;
19032;SDS011;9649;51.042;13.804;2023-12-20T04:51:25;1.00;;;0.90;;
19032;SDS011;9649;51.042;13.804;2023-12-20T04:56:31;0.93;;;0.80;;
19032;SDS011;9649;51.042;13.804;2023-12-20T05:01:34;1.30;;;1.10;;
19032;SDS011;9649;51.042;13.804;2023-12-20T05:06:38;0.80;;;0.80;;
19032;SDS011;9649;51.042;13.804;2023-12-20T05:11:42;1.20;;;1.10;;
19032;SDS011;9649;51.042;13.804;2023-12-20T05:16:45;5.27;;;3.40;;
19032;SDS011;9649;51.042;13.804;2023-12-20T05:21:48;2.40;;;1.73;;
19032;SDS011;9649;51.042;13.804;2023-12-20T05:26:54;3.27;;;1.80;;
19032;SDS011;9649;51.042;13.804;2023-12-20T05:31:57;1.77;;;1.10;;
19032;SDS011;9649;51.042;13.804;2023-12-20T05:37:01;0.80;;;0.80;;
19032;SDS011;9649;51.042;13.804;2023-12-20T05:42:05;0.90;;;0.90;;
19032;SDS011;9649;51.042;13.804;2023-12-20T05:47:08;1.13;;;0.80;;
19032;SDS011;9649;51.042;13.804;2023-12-20T05:52:11;0.80;;;0.80;;
19032;SDS011;9649;51.042;13.804;2023-12-20T05:57:15;2.70;;;0.90;;
19032;SDS011;9649;51.042;13.804;2023-12-20T06:02:18;3.27;;;1.03;;
19032;SDS011;9649;51.042;13.804;2023-12-20T06:07:21;1.07;;;0.97;;
19032;SDS011;9649;51.042;13.804;2023-12-20T06:12:25;0.90;;;0.83;;
19032;SDS011;9649;51.042;13.804;2023-12-20T06:17:30;1.77;;;0.97;;
19032;SDS011;9649;51.042;13.804;2023-12-20T06:22:33;1.03;;;0.97;;
19032;SDS011;9649;51.042;13.804;2023-12-20T06:27:37;1.17;;;1.07;;
19032;SDS011;9649;51.042;13.804;2023-12-20T06:32:41;1.43;;;1.00;;
19032;SDS011;9649;51.042;13.804;2023-12-20T06:37:43;1.10;;;1.00;;
19032;SDS011;9649;51.042;13.804;2023-12-20T06:42:48;2.63;;;1.50;;
19032;SDS011;9649;51.042;13.804;2023-12-20T06:48:05;1.93;;;1.47;;
19032;SDS011;9649;51.042;13.804;2023-12-20T06:53:08;1.60;;;1.43;;
19032;SDS011;9649;51.042;13.804;2023-12-20T06:58:12;3.10;;;1.90;;
19032;SDS011;9649;51.042;13.804;2023-12-20T07:03:15;2.60;;;2.03;;
19032;SDS011;9649;51.042;13.804;2023-12-20T07:08:19;2.63;;;2.10;;
19032;SDS011;9649;51.042;13.804;2023-12-20T07:13:23;2.07;;;1.87;;
19032;SDS011;9649;51.042;13.804;2023-12-20T07:18:26;4.63;;;2.27;;
19032;SDS011;9649;51.042;13.804;2023-12-20T07:23:29;2.17;;;1.97;;
19032;SDS011;9649;51.042;13.804;2023-12-20T07:28:33;3.10;;;2.37;;
19032;SDS011;9649;51.042;13.804;2023-12-20T07:33:36;4.13;;;2.40;;
19032;SDS011;9649;51.042;13.804;2023-12-20T07:38:40;2.67;;;2.30;;
19032;SDS011;9649;51.042;13.804;2023-12-20T07:43:46;4.50;;;2.43;;
19032;SDS011;9649;51.042;13.804;2023-12-20T07:48:49;3.93;;;2.33;;
19032;SDS011;9649;51.042;13.804;2023-12-20T07:53:52;5.53;;;2.80;;
19032;SDS011;9649;51.042;13.804;2023-12-20T07:58:56;4.47;;;2.53;;
19032;SDS011;9649;51.042;13.804;2023-12-20T08:04:01;3.00;;;2.63;;
19032;SDS011;9649;51.042;13.804;2023-12-20T08:09:04;4.83;;;2.50;;
19032;SDS011;9649;51.042;13.804;2023-12-20T08:14:08;3.60;;;2.30;;
19032;SDS011;9649;51.042;13.804;2023-12-20T08:19:11;2.47;;;2.17;;
19032;SDS011;9649;51.042;13.804;2023-12-20T08:24:15;1.67;;;1.57;;
19032;SDS011;9649;51.042;13.804;2023-12-20T08:29:19;1.53;;;1.43;;
19032;SDS011;9649;51.042;13.804;2023-12-20T08:34:22;1.67;;;1.30;;
19032;SDS011;9649;51.042;13.804;2023-12-20T08:39:26;2.07;;;1.20;;
19032;SDS011;9649;51.042;13.804;2023-12-20T08:44:30;2.13;;;1.30;;
19032;SDS011;9649;51.042;13.804;2023-12-20T08:49:32;1.73;;;1.10;;
19032;SDS011;9649;51.042;13.804;2023-12-20T08:54:35;3.33;;;0.90;;
19032;SDS011;9649;51.042;13.804;2023-12-20T08:59:39;4.57;;;1.17;;
19032;SDS011;9649;51.042;13.804;2023-12-20T09:04:42;3.17;;;0.90;;
19032;SDS011;9649;51.042;13.804;2023-12-20T09:09:45;2.35;;;0.85;;
19032;SDS011;9649;51.042;13.804;2023-12-20T09:14:50;4.80;;;0.90;;
19032;SDS011;9649;51.042;13.804;2023-12-20T09:19:53;2.20;;;0.80;;
19032;SDS011;9649;51.042;13.804;2023-12-20T09:24:56;3.80;;;0.90;;
19032;SDS011;9649;51.042;13.804;2023-12-20T09:30:00;3.00;;;0.80;;
19032;SDS011;9649;51.042;13.804;2023-12-20T09:35:03;3.67;;;1.00;;
19032;SDS011;9649;51.042;13.804;2023-12-20T09:40:08;2.75;;;0.90;;
19032;SDS011;9649;51.042;13.804;2023-12-20T09:45:16;4.13;;;1.10;;
19032;SDS011;9649;51.042;13.804;2023-12-20T09:50:23;4.40;;;1.27;;
19032;SDS011;9649;51.042;13.804;2023-12-20T09:55:26;3.08;;;0.75;;
19032;SDS011;9649;51.042;13.804;2023-12-20T10:00:32;3.17;;;1.00;;
19032;SDS011;9649;51.042;13.804;2023-12-20T10:05:35;2.65;;;1.10;;
19032;SDS011;9649;51.042;13.804;2023-12-20T10:10:38;2.78;;;0.90;;
19032;SDS011;9649;51.042;13.804;2023-12-20T10:15:49;4.07;;;0.98;;
19032;SDS011;9649;51.042;13.804;2023-12-20T10:20:52;2.95;;;1.10;;
19032;SDS011;9649;51.042;13.804;2023-12-20T10:25:56;2.88;;;0.80;;
19032;SDS011;9649;51.042;13.804;2023-12-20T10:31:00;7.13;;;1.08;;
19032;SDS011;9649;51.042;13.804;2023-12-20T10:36:04;3.88;;;0.88;;
19032;SDS011;9649;51.042;13.804;2023-12-20T10:41:07;2.53;;;0.95;;
19032;SDS011;9649;51.042;13.804;2023-12-20T10:46:13;4.82;;;1.20;;
19032;SDS011;9649;51.042;13.804;2023-12-20T10:51:18;3.55;;;1.17;;
19032;SDS011;9649;51.042;13.804;2023-12-20T10:56:21;8.68;;;1.10;;
19032;SDS011;9649;51.042;13.804;2023-12-20T11:01:26;3.53;;;1.08;;
19032;SDS011;9649;51.042;13.804;2023-12-20T11:06:33;3.47;;;1.10;;
19032;SDS011;9649;51.042;13.804;2023-12-20T11:11:52;3.92;;;1.10;;
19032;SDS011;9649;51.042;13.804;2023-12-20T11:17:08;4.10;;;1.20;;
19032;SDS011;9649;51.042;13.804;2023-12-20T11:22:13;3.22;;;1.08;;
19032;SDS011;9649;51.042;13.804;2023-12-20T11:27:20;6.32;;;1.30;;
19032;SDS011;9649;51.042;13.804;2023-12-20T11:32:29;3.57;;;1.10;;
19032;SDS011;9649;51.042;13.804;2023-12-20T11:37:35;7.70;;;1.30;;
19032;SDS011;9649;51.042;13.804;2023-12-20T11:42:39;6.67;;;1.10;;
19032;SDS011;9649;51.042;13.804;2023-12-20T11:47:45;5.97;;;1.30;;
19032;SDS011;9649;51.042;13.804;2023-12-20T11:52:52;5.57;;;1.43;;
19032;SDS011;9649;51.042;13.804;2023-12-20T11:57:56;5.63;;;1.40;;
19032;SDS011;9649;51.042;13.804;2023-12-20T12:03:00;3.60;;;1.20;;
19032;SDS011;9649;51.042;13.804;2023-12-20T12:08:05;3.20;;;1.07;;
19032;SDS011;9649;51.042;13.804;2023-12-20T12:13:09;4.07;;;0.95;;
19032;SDS011;9649;51.042;13.804;2023-12-20T12:18:16;3.33;;;1.05;;
19032;SDS011;9649;51.042;13.804;2023-12-20T12:23:23;2.72;;;1.10;;
19032;SDS011;9649;51.042;13.804;2023-12-20T12:28:26;4.35;;;1.10;;
19032;SDS011;9649;51.042;13.804;2023-12-20T12:33:31;2.50;;;1.08;;
19032;SDS011;9649;51.042;13.804;2023-12-20T12:38:34;2.28;;;1.08;;
19032;SDS011;9649;51.042;13.804;2023-12-20T12:43:37;4.65;;;1.23;;
19032;SDS011;9649;51.042;13.804;2023-12-20T12:48:41;5.63;;;1.13;;
19032;SDS011;9649;51.042;13.804;2023-12-20T12:53:47;2.78;;;1.50;;
19032;SDS011;9649;51.042;13.804;2023-12-20T12:58:50;6.78;;;1.23;;
19032;SDS011;9649;51.042;13.804;2023-12-20T13:03:54;3.72;;;1.20;;
19032;SDS011;9649;51.042;13.804;2023-12-20T13:08:57;3.85;;;1.35;;
19032;SDS011;9649;51.042;13.804;2023-12-20T13:13:59;4.43;;;1.25;;
19032;SDS011;9649;51.042;13.804;2023-12-20T13:19:04;4.22;;;1.45;;
19032;SDS011;9649;51.042;13.804;2023-12-20T13:24:07;2.83;;;1.13;;
19032;SDS011;9649;51.042;13.804;2023-12-20T13:29:09;4.70;;;1.15;;
19032;SDS011;9649;51.042;13.804;2023-12-20T13:34:14;4.10;;;1.13;;
19032;SDS011;9649;51.042;13.804;2023-12-20T13:39:18;3.67;;;1.20;;
19032;SDS011;9649;51.042;13.804;2023-12-20T13:44:22;4.00;;;1.20;;
19032;SDS011;9649;51.042;13.804;2023-12-20T13:49:27;3.50;;;1.10;;
19032;SDS011;9649;51.042;13.804;2023-12-20T13:54:30;3.47;;;1.20;;
19032;SDS011;9649;51.042;13.804;2023-12-20T13:59:32;5.57;;;1.00;;
19032;SDS011;9649;51.042;13.804;2023-12-20T14:04:37;4.33;;;1.23;;
19032;SDS011;9649;51.042;13.804;2023-12-20T14:09:44;6.70;;;1.17;;
19032;SDS011;9649;51.042;13.804;2023-12-20T14:14:48;3.70;;;1.13;;
19032;SDS011;9649;51.042;13.804;2023-12-20T14:19:52;4.73;;;1.07;;
19032;SDS011;9649;51.042;13.804;2023-12-20T14:24:55;3.17;;;1.17;;
19032;SDS011;9649;51.042;13.804;2023-12-20T14:29:59;3.80;;;1.40;;
19032;SDS011;9649;51.042;13.804;2023-12-20T14:35:03;3.77;;;1.10;;
19032;SDS011;9649;51.042;13.804;2023-12-20T14:40:07;4.63;;;1.10;;
19032;SDS011;9649;51.042;13.804;2023-12-20T14:45:16;3.03;;;1.23;;
19032;SDS011;9649;51.042;13.804;2023-12-20T14:50:20;2.73;;;0.90;;
19032;SDS011;9649;51.042;13.804;2023-12-20T14:55:23;3.17;;;1.27;;
19032;SDS011;9649;51.042;13.804;2023-12-20T15:00:28;3.93;;;1.20;;
19032;SDS011;9649;51.042;13.804;2023-12-20T15:05:32;3.37;;;1.00;;
19032;SDS011;9649;51.042;13.804;2023-12-20T15:10:37;3.63;;;1.10;;
19032;SDS011;9649;51.042;13.804;2023-12-20T15:15:40;3.30;;;1.10;;
19032;SDS011;9649;51.042;13.804;2023-12-20T15:20:47;4.30;;;1.67;;
19032;SDS011;9649;51.042;13.804;2023-12-20T15:25:51;4.43;;;1.40;;
19032;SDS011;9649;51.042;13.804;2023-12-20T15:30:54;3.70;;;1.20;;
19032;SDS011;9649;51.042;13.804;2023-12-20T15:35:59;4.20;;;1.33;;
19032;SDS011;9649;51.042;13.804;2023-12-20T15:41:02;1.67;;;0.97;;
19032;SDS011;9649;51.042;13.804;2023-12-20T15:46:05;4.53;;;1.13;;
19032;SDS011;9649;51.042;13.804;2023-12-20T15:51:09;2.37;;;1.13;;
19032;SDS011;9649;51.042;13.804;2023-12-20T15:56:12;3.13;;;1.30;;
19032;SDS011;9649;51.042;13.804;2023-12-20T16:01:14;7.47;;;1.47;;
19032;SDS011;9649;51.042;13.804;2023-12-20T16:06:19;1.90;;;1.00;;
19032;SDS011;9649;51.042;13.804;2023-12-20T16:11:23;5.33;;;0.93;;
19032;SDS011;9649;51.042;13.804;2023-12-20T16:16:26;3.33;;;0.97;;
19032;SDS011;9649;51.042;13.804;2023-12-20T16:21:30;2.97;;;1.03;;
19032;SDS011;9649;51.042;13.804;2023-12-20T16:26:33;2.93;;;1.30;;
19032;SDS011;9649;51.042;13.804;2023-12-20T16:31:35;3.30;;;1.10;;
19032;SDS011;9649;51.042;13.804;2023-12-20T16:36:49;4.47;;;1.43;;
19032;SDS011;9649;51.042;13.804;2023-12-20T16:41:54;3.63;;;1.50;;
19032;SDS011;9649;51.042;13.804;2023-12-20T16:46:56;4.07;;;1.33;;
19032;SDS011;9649;51.042;13.804;2023-12-20T16:52:00;2.63;;;1.10;;
19032;SDS011;9649;51.042;13.804;2023-12-20T16:57:06;3.80;;;1.23;;
19032;SDS011;9649;51.042;13.804;2023-12-20T17:02:09;4.17;;;1.40;;
19032;SDS011;9649;51.042;13.804;2023-12-20T17:07:14;3.83;;;1.20;;
19032;SDS011;9649;51.042;13.804;2023-12-20T17:12:18;2.10;;;1.33;;
19032;SDS011;9649;51.042;13.804;2023-12-20T17:17:20;1.73;;;1.07;;
19032;SDS011;9649;51.042;13.804;2023-12-20T17:22:24;3.10;;;1.40;;
19032;SDS011;9649;51.042;13.804;2023-12-20T17:27:27;3.07;;;1.30;;
19032;SDS011;9649;51.042;13.804;2023-12-20T17:32:30;4.10;;;1.30;;
19032;SDS011;9649;51.042;13.804;2023-12-20T17:37:34;7.63;;;1.53;;
19032;SDS011;9649;51.042;13.804;2023-12-20T17:42:37;3.30;;;1.20;;
19032;SDS011;9649;51.042;13.804;2023-12-20T17:47:40;6.97;;;1.60;;
19032;SDS011;9649;51.042;13.804;2023-12-20T17:52:46;4.90;;;1.63;;
19032;SDS011;9649;51.042;13.804;2023-12-20T17:57:49;3.60;;;1.80;;
19032;SDS011;9649;51.042;13.804;2023-12-20T18:02:52;2.93;;;1.70;;
19032;SDS011;9649;51.042;13.804;2023-12-20T18:07:56;7.93;;;1.67;;
19032;SDS011;9649;51.042;13.804;2023-12-20T18:12:59;7.13;;;2.13;;
19032;SDS011;9649;51.042;13.804;2023-12-20T18:18:02;7.37;;;2.00;;
19032;SDS011;9649;51.042;13.804;2023-12-20T18:23:06;5.23;;;2.10;;
19032;SDS011;9649;51.042;13.804;2023-12-20T18:28:12;5.47;;;2.17;;
19032;SDS011;9649;51.042;13.804;2023-12-20T18:33:15;5.70;;;2.07;;
19032;SDS011;9649;51.042;13.804;2023-12-20T18:38:19;5.43;;;2.30;;
19032;SDS011;9649;51.042;13.804;2023-12-20T18:43:23;7.40;;;2.50;;
19032;SDS011;9649;51.042;13.804;2023-12-20T18:48:26;8.93;;;2.43;;
19032;SDS011;9649;51.042;13.804;2023-12-20T18:53:31;8.53;;;2.80;;
19032;SDS011;9649;51.042;13.804;2023-12-20T18:58:33;8.37;;;3.50;;
19032;SDS011;9649;51.042;13.804;2023-12-20T19:03:36;9.23;;;2.97;;
19032;SDS011;9649;51.042;13.804;2023-12-20T19:08:40;6.17;;;2.70;;
19032;SDS011;9649;51.042;13.804;2023-12-20T19:13:43;8.90;;;2.97;;
19032;SDS011;9649;51.042;13.804;2023-12-20T19:18:46;8.03;;;2.70;;
19032;SDS011;9649;51.042;13.804;2023-12-20T19:23:50;8.90;;;4.17;;
19032;SDS011;9649;51.042;13.804;2023-12-20T19:28:53;6.80;;;3.10;;
19032;SDS011;9649;51.042;13.804;2023-12-20T19:33:56;8.43;;;3.30;;
19032;SDS011;9649;51.042;13.804;2023-12-20T19:39:01;7.70;;;3.23;;
19032;SDS011;9649;51.042;13.804;2023-12-20T19:44:04;7.03;;;2.60;;
19032;SDS011;9649;51.042;13.804;2023-12-20T19:49:07;11.37;;;3.33;;
19032;SDS011;9649;51.042;13.804;2023-12-20T19:54:12;9.00;;;3.00;;
19032;SDS011;9649;51.042;13.804;2023-12-20T19:59:15;7.20;;;2.70;;
19032;SDS011;9649;51.042;13.804;2023-12-20T20:04:17;6.77;;;2.90;;
19032;SDS011;9649;51.042;13.804;2023-12-20T20:09:22;7.77;;;2.60;;
19032;SDS011;9649;51.042;13.804;2023-12-20T20:14:24;8.30;;;2.70;;
19032;SDS011;9649;51.042;13.804;2023-12-20T20:19:28;8.73;;;3.33;;
19032;SDS011;9649;51.042;13.804;2023-12-20T20:24:33;5.63;;;2.67;;
19032;SDS011;9649;51.042;13.804;2023-12-20T20:29:36;13.00;;;3.07;;
19032;SDS011;9649;51.042;13.804;2023-12-20T20:34:39;4.40;;;2.57;;
19032;SDS011;9649;51.042;13.804;2023-12-20T20:39:43;6.80;;;2.27;;
19032;SDS011;9649;51.042;13.804;2023-12-20T20:44:49;4.10;;;1.67;;
19032;SDS011;9649;51.042;13.804;2023-12-20T20:49:52;2.17;;;1.40;;
19032;SDS011;9649;51.042;13.804;2023-12-20T20:54:56;1.20;;;0.97;;
19032;SDS011;9649;51.042;13.804;2023-12-20T21:00:00;2.90;;;1.20;;
19032;SDS011;9649;51.042;13.804;2023-12-20T21:05:03;1.80;;;1.10;;
19032;SDS011;9649;51.042;13.804;2023-12-20T21:10:08;1.63;;;0.97;;
19032;SDS011;9649;51.042;13.804;2023-12-20T21:15:11;1.83;;;1.00;;
19032;SDS011;9649;51.042;13.804;2023-12-20T21:20:15;1.43;;;0.90;;
19032;SDS011;9649;51.042;13.804;2023-12-20T21:25:20;0.97;;;0.87;;
19032;SDS011;9649;51.042;13.804;2023-12-20T21:30:23;1.30;;;0.80;;
19032;SDS011;9649;51.042;13.804;2023-12-20T21:35:26;2.43;;;1.20;;
19032;SDS011;9649;51.042;13.804;2023-12-20T21:40:30;1.50;;;0.83;;
19032;SDS011;9649;51.042;13.804;2023-12-20T21:45:33;2.87;;;0.73;;
19032;SDS011;9649;51.042;13.804;2023-12-20T21:50:37;2.57;;;1.00;;
19032;SDS011;9649;51.042;13.804;2023-12-20T21:55:42;1.60;;;0.90;;
19032;SDS011;9649;51.042;13.804;2023-12-20T22:00:44;2.40;;;0.70;;
19032;SDS011;9649;51.042;13.804;2023-12-20T22:05:47;1.43;;;0.80;;
19032;SDS011;9649;51.042;13.804;2023-12-20T22:10:52;1.57;;;0.67;;
19032;SDS011;9649;51.042;13.804;2023-12-20T22:15:54;0.70;;;0.60;;
19032;SDS011;9649;51.042;13.804;2023-12-20T22:20:57;1.77;;;0.70;;
19032;SDS011;9649;51.042;13.804;2023-12-20T22:26:02;0.87;;;0.70;;
19032;SDS011;9649;51.042;13.804;2023-12-20T22:31:07;0.90;;;0.60;;
19032;SDS011;9649;51.042;13.804;2023-12-20T22:36:10;5.03;;;0.70;;
19032;SDS011;9649;51.042;13.804;2023-12-20T22:41:15;1.00;;;0.70;;
19032;SDS011;9649;51.042;13.804;2023-12-20T22:46:18;2.20;;;0.70;;
19032;SDS011;9649;51.042;13.804;2023-12-20T22:51:21;1.23;;;0.50;;
19032;SDS011;9649;51.042;13.804;2023-12-20T22:56:25;2.27;;;0.80;;
19032;SDS011;9649;51.042;13.804;2023-12-20T23:01:28;1.77;;;0.70;;
19032;SDS011;9649;51.042;13.804;2023-12-20T23:06:31;1.57;;;0.80;;
19032;SDS011;9649;51.042;13.804;2023-12-20T23:11:35;1.60;;;0.73;;
19032;SDS011;9649;51.042;13.804;2023-12-20T23:16:38;1.83;;;0.77;;
19032;SDS011;9649;51.042;13.804;2023-12-20T23:21:41;3.50;;;1.43;;
19032;SDS011;9649;51.042;13.804;2023-12-20T23:26:45;1.30;;;0.60;;
19032;SDS011;9649;51.042;13.804;2023-12-20T23:31:48;0.63;;;0.60;;
19032;SDS011;9649;51.042;13.804;2023-12-20T23:36:51;4.50;;;0.80;;
19032;SDS011;9649;51.042;13.804;2023-12-20T23:41:55;1.77;;;0.70;;
19032;SDS011;9649;51.042;13.804;2023-12-20T23:46:57;1.33;;;0.70;;
19032;SDS011;9649;51.042;13.804;2023-12-20T23:52:00;0.57;;;0.57;;
19032;SDS011;9649;51.042;13.804;2023-12-20T23:57:05;2.10;;;0.60;;
